createdAt,value
2017-12-17T00:01:09.665Z,1.70
2017-12-17T00:03:37.235Z,1.70
2017-12-17T00:06:04.778Z,1.70
2017-12-17T00:08:32.339Z,1.70
2017-12-17T00:10:59.872Z,1.80
2017-12-17T00:13:27.429Z,1.70
2017-12-17T00:15:54.965Z,1.70
2017-12-17T00:18:23.293Z,1.70
2017-12-17T00:20:50.834Z,1.70
2017-12-17T00:23:18.412Z,1.70
2017-12-17T00:25:45.943Z,1.70
2017-12-17T00:28:13.498Z,1.70
2017-12-17T00:30:41.038Z,1.60
2017-12-17T00:33:09.363Z,1.70
2017-12-17T00:35:36.895Z,1.70
2017-12-17T00:38:04.461Z,1.70
2017-12-17T00:40:32.002Z,1.60
2017-12-17T00:43:00.325Z,1.60
2017-12-17T00:45:27.858Z,1.60
2017-12-17T00:47:55.400Z,1.60
2017-12-17T00:50:23.726Z,1.50
2017-12-17T00:52:51.258Z,1.50
2017-12-17T00:55:19.606Z,1.50
2017-12-17T00:57:47.917Z,1.40
2017-12-17T01:00:15.475Z,1.40
2017-12-17T01:02:43.018Z,1.40
2017-12-17T01:05:10.577Z,1.40
2017-12-17T01:07:38.911Z,1.50
2017-12-17T01:10:06.458Z,1.40
2017-12-17T01:12:34.017Z,1.30
2017-12-17T01:15:01.582Z,1.30
2017-12-17T01:17:29.116Z,1.20
2017-12-17T01:19:56.705Z,1.20
2017-12-17T01:22:24.243Z,1.10
2017-12-17T01:24:51.803Z,1.10
2017-12-17T01:27:19.367Z,1.10
2017-12-17T01:29:46.926Z,1.20
2017-12-17T01:32:14.470Z,1.10
2017-12-17T01:34:42.034Z,1.00
2017-12-17T01:37:09.592Z,1.00
2017-12-17T01:39:37.143Z,1.00
2017-12-17T01:42:04.680Z,1.10
2017-12-17T01:44:33.015Z,1.00
2017-12-17T01:47:00.546Z,1.00
2017-12-17T01:49:28.093Z,1.00
2017-12-17T01:51:55.654Z,1.10
2017-12-17T01:54:23.193Z,1.00
2017-12-17T01:56:51.532Z,1.00
2017-12-17T01:59:19.066Z,1.00
2017-12-17T02:01:46.635Z,0.90
2017-12-17T02:04:14.170Z,1.00
2017-12-17T02:06:41.731Z,1.00
2017-12-17T02:09:09.263Z,1.00
2017-12-17T02:11:36.827Z,0.90
2017-12-17T02:14:05.129Z,0.90
2017-12-17T02:16:32.696Z,0.90
2017-12-17T02:19:00.230Z,0.90
2017-12-17T02:21:28.566Z,1.00
2017-12-17T02:23:56.098Z,1.00
2017-12-17T02:26:23.651Z,1.00
2017-12-17T02:28:51.183Z,0.90
2017-12-17T02:31:19.509Z,0.90
2017-12-17T02:33:47.043Z,0.90
2017-12-17T02:36:14.613Z,0.80
2017-12-17T02:38:42.148Z,0.70
2017-12-17T02:41:10.477Z,0.70
2017-12-17T02:43:38.015Z,0.60
2017-12-17T02:46:05.583Z,0.60
2017-12-17T02:48:33.132Z,0.50
2017-12-17T02:51:00.675Z,0.50
2017-12-17T02:53:28.243Z,0.30
2017-12-17T02:55:55.787Z,0.30
2017-12-17T02:58:24.103Z,0.10
2017-12-17T03:00:51.639Z,0.00
2017-12-17T03:03:19.211Z,0.00
2017-12-17T03:05:46.759Z,-0.10
2017-12-17T03:08:14.322Z,-0.10
2017-12-17T03:10:41.863Z,-0.10
2017-12-17T03:13:09.449Z,-0.20
2017-12-17T03:15:36.991Z,-0.20
2017-12-17T03:18:04.566Z,-0.30
2017-12-17T03:20:32.124Z,-0.30
2017-12-17T03:22:59.690Z,-0.30
2017-12-17T03:25:27.263Z,-0.30
2017-12-17T03:27:54.823Z,-0.40
2017-12-17T03:30:22.378Z,-0.40
2017-12-17T03:32:49.943Z,-0.50
2017-12-17T03:35:17.489Z,-0.50
2017-12-17T03:37:45.046Z,-0.50
2017-12-17T03:40:12.596Z,-0.60
2017-12-17T03:42:40.134Z,-0.70
2017-12-17T03:45:08.458Z,-0.70
2017-12-17T03:47:36.001Z,-0.70
2017-12-17T03:50:03.574Z,-0.70
2017-12-17T03:52:31.118Z,-0.60
2017-12-17T03:54:58.688Z,-0.50
2017-12-17T03:57:26.226Z,-0.60
2017-12-17T03:59:53.790Z,-0.60
2017-12-17T04:02:21.335Z,-0.60
2017-12-17T04:04:49.750Z,-0.50
2017-12-17T04:07:17.298Z,-0.60
2017-12-17T04:09:45.626Z,-0.50
2017-12-17T04:12:13.166Z,-0.50
2017-12-17T04:14:40.747Z,-0.40
2017-12-17T04:17:08.304Z,-0.40
2017-12-17T04:19:35.879Z,-0.40
2017-12-17T04:22:04.188Z,-0.30
2017-12-17T04:24:31.791Z,-0.30
2017-12-17T04:26:59.331Z,-0.30
2017-12-17T04:29:26.862Z,-0.20
2017-12-17T04:31:54.434Z,-0.30
2017-12-17T04:34:21.988Z,-0.30
2017-12-17T04:36:49.551Z,-0.30
2017-12-17T04:39:17.095Z,-0.30
2017-12-17T04:41:44.659Z,-0.20
2017-12-17T04:44:12.203Z,-0.20
2017-12-17T04:46:40.538Z,-0.20
2017-12-17T04:49:08.086Z,-0.20
2017-12-17T04:51:35.656Z,-0.20
2017-12-17T04:54:03.201Z,-0.20
2017-12-17T04:56:30.767Z,-0.20
2017-12-17T04:58:58.306Z,-0.20
2017-12-17T05:01:25.873Z,-0.10
2017-12-17T05:03:53.409Z,-0.20
2017-12-17T05:06:20.988Z,-0.20
2017-12-17T05:08:48.537Z,-0.10
2017-12-17T05:11:16.099Z,-0.10
2017-12-17T05:13:43.634Z,-0.10
2017-12-17T05:16:11.959Z,-0.10
2017-12-17T05:18:39.491Z,-0.20
2017-12-17T05:21:07.063Z,-0.20
2017-12-17T05:23:34.595Z,-0.20
2017-12-17T05:26:02.906Z,-0.20
2017-12-17T05:28:30.470Z,-0.20
2017-12-17T05:30:58.007Z,-0.20
2017-12-17T05:33:25.573Z,-0.20
2017-12-17T05:35:53.102Z,-0.20
2017-12-17T05:38:21.439Z,-0.20
2017-12-17T05:40:48.971Z,-0.20
2017-12-17T05:43:16.537Z,-0.20
2017-12-17T05:45:44.088Z,-0.20
2017-12-17T05:48:11.637Z,-0.10
2017-12-17T05:50:39.939Z,-0.10
2017-12-17T05:53:07.503Z,-0.10
2017-12-17T05:55:35.046Z,0.00
2017-12-17T05:58:02.600Z,0.00
2017-12-17T06:00:30.159Z,0.00
2017-12-17T06:02:57.726Z,-0.10
2017-12-17T06:05:25.287Z,0.00
2017-12-17T06:07:52.842Z,0.00
2017-12-17T06:10:20.375Z,0.00
2017-12-17T06:12:47.936Z,0.00
2017-12-17T06:15:15.623Z,0.00
2017-12-17T06:17:43.176Z,0.00
2017-12-17T06:20:10.711Z,0.00
2017-12-17T06:22:39.035Z,0.00
2017-12-17T06:25:06.573Z,0.00
2017-12-17T06:27:35.270Z,0.00
2017-12-17T06:51:22.262Z,0.00
2017-12-17T06:53:49.855Z,-0.10
2017-12-17T06:56:18.205Z,0.00
2017-12-17T06:58:45.766Z,0.00
2017-12-17T07:01:13.311Z,0.00
2017-12-17T07:03:40.848Z,0.00
2017-12-17T07:06:09.178Z,0.10
2017-12-17T07:08:36.720Z,0.00
2017-12-17T07:11:04.343Z,0.10
2017-12-17T07:13:31.878Z,0.10
2017-12-17T07:16:00.217Z,0.10
2017-12-17T07:18:27.798Z,0.10
2017-12-17T07:20:55.365Z,0.10
2017-12-17T07:23:22.902Z,0.10
2017-12-17T07:25:50.462Z,0.10
2017-12-17T07:28:18.003Z,0.10
2017-12-17T07:30:45.561Z,0.00
2017-12-17T07:33:13.098Z,0.20
2017-12-17T07:35:40.658Z,0.10
2017-12-17T07:38:08.187Z,0.10
2017-12-17T07:40:35.719Z,0.20
2017-12-17T07:43:03.271Z,0.10
2017-12-17T07:45:30.814Z,0.10
2017-12-17T07:47:58.382Z,0.10
2017-12-17T07:50:25.939Z,0.10
2017-12-17T07:52:53.494Z,0.20
2017-12-17T07:55:21.023Z,0.30
2017-12-17T07:57:48.583Z,0.20
2017-12-17T08:00:16.122Z,0.30
2017-12-17T08:02:43.699Z,0.30
2017-12-17T08:05:11.270Z,0.30
2017-12-17T08:07:38.836Z,0.10
2017-12-17T08:10:06.428Z,0.20
2017-12-17T08:12:33.970Z,0.30
2017-12-17T08:15:01.514Z,0.30
2017-12-17T08:17:29.067Z,0.20
2017-12-17T08:19:56.603Z,0.30
2017-12-17T08:22:24.963Z,0.20
2017-12-17T08:24:52.490Z,0.20
2017-12-17T08:27:20.063Z,0.40
2017-12-17T08:29:47.601Z,0.40
2017-12-17T08:32:15.161Z,0.30
2017-12-17T08:34:42.704Z,0.30
2017-12-17T08:37:10.240Z,0.40
2017-12-17T08:39:38.567Z,0.30
2017-12-17T08:42:06.107Z,0.30
2017-12-17T08:44:33.669Z,0.40
2017-12-17T08:47:01.210Z,0.40
2017-12-17T08:49:29.615Z,0.40
2017-12-17T08:51:57.221Z,0.40
2017-12-17T08:54:24.779Z,0.50
2017-12-17T08:56:52.658Z,0.50
2017-12-17T08:59:21.114Z,0.50
2017-12-17T09:01:49.459Z,0.50
2017-12-17T09:04:17.039Z,0.50
2017-12-17T09:06:44.574Z,0.50
2017-12-17T09:09:12.150Z,0.40
2017-12-17T09:11:39.707Z,0.40
2017-12-17T09:14:07.272Z,0.40
2017-12-17T09:16:34.908Z,0.50
2017-12-17T09:19:02.678Z,0.50
2017-12-17T09:21:30.218Z,0.60
2017-12-17T09:23:58.552Z,0.50
2017-12-17T09:26:26.100Z,0.50
2017-12-17T09:28:53.666Z,0.50
2017-12-17T09:31:21.211Z,0.50
2017-12-17T09:33:48.779Z,0.40
2017-12-17T09:36:17.082Z,0.40
2017-12-17T09:38:44.870Z,0.40
2017-12-17T09:41:13.386Z,0.60
2017-12-17T09:43:40.926Z,0.60
2017-12-17T09:46:09.257Z,0.60
2017-12-17T09:48:36.796Z,0.60
2017-12-17T09:51:04.347Z,0.60
2017-12-17T09:53:31.878Z,0.60
2017-12-17T09:56:00.238Z,0.60
2017-12-17T09:58:27.762Z,0.60
2017-12-17T10:00:55.327Z,0.50
2017-12-17T10:03:22.873Z,0.50
2017-12-17T10:05:50.555Z,0.50
2017-12-17T10:08:18.099Z,0.70
2017-12-17T10:10:45.689Z,0.70
2017-12-17T10:13:13.336Z,0.80
2017-12-17T10:15:40.891Z,0.80
2017-12-17T10:18:08.714Z,0.80
2017-12-17T10:20:37.198Z,0.80
2017-12-17T10:23:04.731Z,0.80
2017-12-17T10:25:32.297Z,1.00
2017-12-17T10:28:00.637Z,1.00
2017-12-17T10:30:28.195Z,1.00
2017-12-17T10:32:55.726Z,1.10
2017-12-17T10:35:23.533Z,1.10
2017-12-17T10:37:51.067Z,1.00
2017-12-17T10:40:18.729Z,1.00
2017-12-17T10:42:46.255Z,1.10
2017-12-17T10:45:14.554Z,1.20
2017-12-17T10:47:42.110Z,1.20
2017-12-17T10:50:09.878Z,1.40
2017-12-17T10:52:37.449Z,1.20
2017-12-17T10:55:04.995Z,1.20
2017-12-17T10:57:32.594Z,1.10
2017-12-17T11:00:00.130Z,1.30
2017-12-17T11:02:27.723Z,1.20
2017-12-17T11:04:55.309Z,1.20
2017-12-17T11:07:28.815Z,1.00
2017-12-17T11:09:57.402Z,1.20
2017-12-17T11:12:25.723Z,1.20
2017-12-17T11:14:53.255Z,1.20
2017-12-17T11:17:20.811Z,1.20
2017-12-17T11:19:48.356Z,1.30
2017-12-17T11:22:16.677Z,1.30
2017-12-17T11:24:44.208Z,1.30
2017-12-17T11:27:12.709Z,1.50
2017-12-17T11:29:40.246Z,1.50
2017-12-17T11:32:07.810Z,1.50
2017-12-17T11:34:35.350Z,1.50
2017-12-17T11:37:03.716Z,1.20
2017-12-17T11:39:31.227Z,1.20
2017-12-17T11:41:58.767Z,1.20
2017-12-17T11:44:26.327Z,1.20
2017-12-17T11:46:53.864Z,1.30
2017-12-17T11:51:55.024Z,1.10
2017-12-17T11:54:23.359Z,1.00
2017-12-17T11:56:50.899Z,0.90
2017-12-17T11:59:18.467Z,1.10
2017-12-17T12:01:46.007Z,1.20
2017-12-17T12:04:13.571Z,1.20
2017-12-17T12:06:41.113Z,1.20
2017-12-17T12:09:09.434Z,1.20
2017-12-17T12:11:36.978Z,1.20
2017-12-17T12:14:04.539Z,1.20
2017-12-17T12:16:32.080Z,1.30
2017-12-17T12:18:59.643Z,1.30
2017-12-17T12:21:27.177Z,1.40
2017-12-17T12:23:55.514Z,1.40
2017-12-17T12:26:23.055Z,1.40
2017-12-17T12:28:50.617Z,1.50
2017-12-17T12:31:18.157Z,1.50
2017-12-17T12:33:45.719Z,1.40
2017-12-17T12:36:13.259Z,1.30
2017-12-17T12:38:41.595Z,1.40
2017-12-17T12:41:09.134Z,1.40
2017-12-17T12:43:36.683Z,1.40
2017-12-17T12:46:04.251Z,1.40
2017-12-17T12:48:31.788Z,1.40
2017-12-17T12:50:59.346Z,1.50
2017-12-17T12:53:26.891Z,1.40
2017-12-17T12:55:55.210Z,1.40
2017-12-17T12:58:22.737Z,1.40
2017-12-17T13:00:50.294Z,1.30
2017-12-17T13:03:18.593Z,1.30
2017-12-17T13:05:46.151Z,1.30
2017-12-17T13:08:13.695Z,1.40
2017-12-17T13:10:41.254Z,1.30
2017-12-17T13:13:08.782Z,1.50
2017-12-17T13:15:36.334Z,1.40
2017-12-17T13:18:03.867Z,1.30
2017-12-17T13:20:31.428Z,1.40
2017-12-17T13:22:58.981Z,1.40
2017-12-17T13:25:26.540Z,1.40
2017-12-17T13:27:54.070Z,1.40
2017-12-17T13:30:21.623Z,1.40
2017-12-17T13:32:49.914Z,1.50
2017-12-17T13:35:17.465Z,1.40
2017-12-17T13:37:45.758Z,1.40
2017-12-17T13:40:13.318Z,1.40
2017-12-17T13:42:40.919Z,1.30
2017-12-17T13:45:08.416Z,1.50
2017-12-17T13:47:36.734Z,1.50
2017-12-17T13:50:04.274Z,1.40
2017-12-17T13:52:31.837Z,1.50
2017-12-17T13:54:59.370Z,1.50
2017-12-17T13:57:27.694Z,1.50
2017-12-17T13:59:55.226Z,1.50
2017-12-17T14:02:22.791Z,1.40
2017-12-17T14:04:50.335Z,1.50
2017-12-17T14:07:18.658Z,1.60
2017-12-17T14:09:46.190Z,1.60
2017-12-17T14:12:13.743Z,1.70
2017-12-17T14:14:41.278Z,1.60
2017-12-17T14:17:09.603Z,1.60
2017-12-17T14:19:37.146Z,1.60
2017-12-17T14:22:04.708Z,1.50
2017-12-17T14:24:32.243Z,1.50
2017-12-17T14:27:00.558Z,1.60
2017-12-17T14:29:28.096Z,1.60
2017-12-17T14:31:55.659Z,1.60
2017-12-17T14:34:23.186Z,1.50
2017-12-17T14:36:51.527Z,1.60
2017-12-17T14:39:19.064Z,1.60
2017-12-17T14:41:46.631Z,1.60
2017-12-17T14:44:14.166Z,1.60
2017-12-17T14:46:41.735Z,1.50
2017-12-17T14:49:09.303Z,1.50
2017-12-17T14:51:36.849Z,1.60
2017-12-17T14:54:04.402Z,1.50
2017-12-17T14:56:32.698Z,1.50
2017-12-17T14:59:00.260Z,1.50
2017-12-17T15:01:27.791Z,1.60
2017-12-17T15:03:56.115Z,1.50
2017-12-17T15:06:23.644Z,1.50
2017-12-17T15:08:51.200Z,1.40
2017-12-17T15:11:18.729Z,1.50
2017-12-17T15:13:46.283Z,1.50
2017-12-17T15:16:13.822Z,1.50
2017-12-17T15:18:41.373Z,1.50
2017-12-17T15:21:08.914Z,1.50
2017-12-17T15:23:36.482Z,1.50
2017-12-17T15:26:04.014Z,1.50
2017-12-17T15:28:31.569Z,1.50
2017-12-17T15:30:59.854Z,1.50
2017-12-17T15:33:27.412Z,1.50
2017-12-17T15:35:54.947Z,1.50
2017-12-17T15:38:22.506Z,1.50
2017-12-17T15:40:50.056Z,1.50
2017-12-17T15:43:17.599Z,1.40
2017-12-17T15:45:45.162Z,1.50
2017-12-17T15:48:12.693Z,1.40
2017-12-17T15:50:40.255Z,1.40
2017-12-17T15:53:07.788Z,1.40
2017-12-17T15:55:35.347Z,1.40
2017-12-17T15:58:02.878Z,1.30
2017-12-17T16:00:30.431Z,1.40
2017-12-17T16:02:57.969Z,1.40
2017-12-17T16:05:25.536Z,1.30
2017-12-17T16:07:53.085Z,1.40
2017-12-17T16:10:20.659Z,1.40
2017-12-17T16:12:48.184Z,1.40
2017-12-17T16:15:15.744Z,1.40
2017-12-17T16:17:43.291Z,1.40
2017-12-17T16:20:10.868Z,1.40
2017-12-17T16:22:38.407Z,1.40
2017-12-17T16:25:05.973Z,1.40
2017-12-17T16:27:33.503Z,1.40
2017-12-17T16:30:01.827Z,1.40
2017-12-17T16:32:29.360Z,1.40
2017-12-17T16:34:56.922Z,1.40
2017-12-17T16:37:24.475Z,1.30
2017-12-17T16:39:52.799Z,1.30
2017-12-17T16:42:20.341Z,1.30
2017-12-17T16:44:47.892Z,1.30
2017-12-17T16:47:15.456Z,1.30
2017-12-17T16:49:42.988Z,1.30
2017-12-17T16:52:11.324Z,1.30
2017-12-17T16:54:38.856Z,1.30
2017-12-17T16:57:06.419Z,1.40
2017-12-17T16:59:33.952Z,1.30
2017-12-17T17:02:01.516Z,1.30
2017-12-17T17:04:29.056Z,1.30
2017-12-17T17:06:57.390Z,1.20
2017-12-17T17:09:24.937Z,1.20
2017-12-17T17:11:52.502Z,1.30
2017-12-17T17:14:20.043Z,1.30
2017-12-17T17:16:47.612Z,1.40
2017-12-17T17:19:15.144Z,1.40
2017-12-17T17:21:43.463Z,1.30
2017-12-17T17:24:11.004Z,1.30
2017-12-17T17:26:38.555Z,1.30
2017-12-17T17:29:06.095Z,1.30
2017-12-17T17:31:34.418Z,1.30
2017-12-17T17:34:01.961Z,1.30
2017-12-17T17:36:29.525Z,1.30
2017-12-17T17:38:57.067Z,1.30
2017-12-17T17:41:24.600Z,1.30
2017-12-17T17:43:52.924Z,1.40
2017-12-17T17:46:20.452Z,1.40
2017-12-17T17:48:48.023Z,1.40
2017-12-17T17:51:15.555Z,1.40
2017-12-17T17:53:43.884Z,1.40
2017-12-17T17:56:11.406Z,1.30
2017-12-17T17:58:39.740Z,1.30
2017-12-17T18:01:07.281Z,1.30
2017-12-17T18:03:34.842Z,1.40
2017-12-17T18:06:02.374Z,1.30
2017-12-17T18:08:29.939Z,1.40
2017-12-17T18:10:57.484Z,1.40
2017-12-17T18:13:25.051Z,1.30
2017-12-17T18:15:52.596Z,1.30
2017-12-17T18:18:20.927Z,1.30
2017-12-17T18:20:48.495Z,1.30
2017-12-17T18:23:16.054Z,1.40
2017-12-17T18:25:43.591Z,1.30
2017-12-17T18:28:11.156Z,1.30
2017-12-17T18:30:39.450Z,1.30
2017-12-17T18:33:07.002Z,1.20
2017-12-17T18:35:34.526Z,1.30
2017-12-17T18:38:02.083Z,1.30
2017-12-17T18:40:29.626Z,1.30
2017-12-17T18:42:57.927Z,1.30
2017-12-17T18:45:26.268Z,1.40
2017-12-17T18:47:53.804Z,1.30
2017-12-17T18:50:21.374Z,1.30
2017-12-17T18:52:48.917Z,1.30
2017-12-17T18:55:16.475Z,1.30
2017-12-17T18:57:45.925Z,1.30
2017-12-17T19:00:14.240Z,1.30
2017-12-17T19:02:41.779Z,1.30
2017-12-17T19:05:09.344Z,1.30
2017-12-17T19:07:36.882Z,1.20
2017-12-17T19:10:05.208Z,1.20
2017-12-17T19:12:32.752Z,1.20
2017-12-17T19:15:00.316Z,1.30
2017-12-17T19:17:27.851Z,1.20
2017-12-17T19:19:55.411Z,1.20
2017-12-17T19:22:22.944Z,1.20
2017-12-17T19:24:51.279Z,1.20
2017-12-17T19:27:18.855Z,1.20
2017-12-17T19:29:46.426Z,1.20
2017-12-17T19:32:13.967Z,1.20
2017-12-17T19:34:41.536Z,1.20
2017-12-17T19:37:09.074Z,1.20
2017-12-17T19:39:36.632Z,1.20
2017-12-17T19:42:04.166Z,1.10
2017-12-17T19:44:31.700Z,1.10
2017-12-17T19:46:59.264Z,1.20
2017-12-17T19:49:27.578Z,1.20
2017-12-17T19:51:55.143Z,1.20
2017-12-17T19:54:22.687Z,1.20
2017-12-17T19:56:50.264Z,1.30
2017-12-17T19:59:18.622Z,1.30
2017-12-17T20:01:46.158Z,1.30
2017-12-17T20:04:14.147Z,1.20
2017-12-17T20:06:42.525Z,1.10
2017-12-17T20:09:10.831Z,1.10
2017-12-17T20:11:38.392Z,1.10
2017-12-17T20:14:05.938Z,1.10
2017-12-17T20:16:33.515Z,1.10
2017-12-17T20:19:01.062Z,1.10
2017-12-17T20:21:28.623Z,1.10
2017-12-17T20:23:56.193Z,1.10
2017-12-17T20:26:23.739Z,1.10
2017-12-17T20:28:51.276Z,1.00
2017-12-17T20:31:19.607Z,1.00
2017-12-17T20:33:47.151Z,1.00
2017-12-17T20:36:14.714Z,1.10
2017-12-17T20:38:43.010Z,1.00
2017-12-17T20:41:10.534Z,1.00
2017-12-17T20:43:38.095Z,1.00
2017-12-17T20:46:05.628Z,1.00
2017-12-17T20:48:33.983Z,1.00
2017-12-17T20:51:01.529Z,1.00
2017-12-17T20:53:29.115Z,1.00
2017-12-17T20:55:56.652Z,1.00
2017-12-17T20:58:24.240Z,0.90
2017-12-17T21:00:52.545Z,0.80
2017-12-17T21:03:20.099Z,0.80
2017-12-17T21:05:47.644Z,0.80
2017-12-17T21:08:15.972Z,0.70
2017-12-17T21:10:43.510Z,0.70
2017-12-17T21:13:11.077Z,0.70
2017-12-17T21:15:38.608Z,0.70
2017-12-17T21:18:06.184Z,0.70
2017-12-17T21:20:33.719Z,0.70
2017-12-17T21:23:02.099Z,0.70
2017-12-17T21:25:30.391Z,0.70
2017-12-17T21:27:57.955Z,0.60
2017-12-17T21:30:25.486Z,0.60
2017-12-17T21:32:53.826Z,0.70
2017-12-17T21:35:21.366Z,0.60
2017-12-17T21:37:48.927Z,0.70
2017-12-17T21:40:16.465Z,0.70
2017-12-17T21:42:44.008Z,0.70
2017-12-17T21:45:12.332Z,0.60
2017-12-17T21:47:39.898Z,0.60
2017-12-17T21:50:07.435Z,0.50
2017-12-17T21:52:34.982Z,0.60
2017-12-17T21:55:02.541Z,0.50
2017-12-17T21:57:30.077Z,0.60
2017-12-17T21:59:58.419Z,0.60
2017-12-17T22:02:26.099Z,0.60
2017-12-17T22:04:53.679Z,0.60
2017-12-17T22:07:21.981Z,0.60
2017-12-17T22:09:49.550Z,0.60
2017-12-17T22:12:17.078Z,0.60
2017-12-17T22:14:45.403Z,0.60
2017-12-17T22:17:13.718Z,0.60
2017-12-17T22:19:41.322Z,0.60
2017-12-17T22:22:08.863Z,0.60
2017-12-17T22:24:37.200Z,0.60
2017-12-17T22:27:04.747Z,0.60
2017-12-17T22:29:32.310Z,0.60
2017-12-17T22:31:59.848Z,0.60
2017-12-17T22:34:27.397Z,0.60
2017-12-17T22:36:54.942Z,0.70
2017-12-17T22:39:22.511Z,0.70
2017-12-17T22:41:50.039Z,0.70
2017-12-17T22:44:17.571Z,0.70
2017-12-17T22:46:45.130Z,0.60
2017-12-17T22:49:12.663Z,0.70
2017-12-17T22:51:40.218Z,0.70
2017-12-17T22:54:07.747Z,0.70
2017-12-17T22:56:36.070Z,0.70
2017-12-17T22:59:03.615Z,0.70
2017-12-17T23:01:31.179Z,0.70
2017-12-17T23:03:58.716Z,0.70
2017-12-17T23:06:27.035Z,0.60
2017-12-17T23:08:54.558Z,0.60
2017-12-17T23:11:22.129Z,0.60
2017-12-17T23:13:49.659Z,0.60
2017-12-17T23:16:17.989Z,0.60
2017-12-17T23:18:45.521Z,0.60
2017-12-17T23:21:13.073Z,0.60
2017-12-17T23:23:40.608Z,0.60
2017-12-17T23:26:08.167Z,0.60
2017-12-17T23:28:35.694Z,0.60
2017-12-17T23:31:03.259Z,0.70
2017-12-17T23:33:30.795Z,0.60
2017-12-17T23:35:58.357Z,0.60
2017-12-17T23:38:25.899Z,0.60
2017-12-17T23:40:53.459Z,0.60
2017-12-17T23:43:20.996Z,0.60
2017-12-17T23:45:48.549Z,0.60
2017-12-17T23:48:16.880Z,0.60
2017-12-17T23:50:44.415Z,0.60
2017-12-17T23:53:11.971Z,0.60
2017-12-17T23:55:39.516Z,0.60
2017-12-17T23:58:07.080Z,0.60
